Time;durP1;ratioP1;P1;durP2;ratioP2;P2;SDS_P1;SDS_P2;PMS_P1;PMS_P2;Temp;Humidity;BMP_temperature;BMP_pressure;BME280_temperature;BME280_humidity;BME280_pressure;Samples;Min_cycle;Max_cycle;Signal;HPM_P1;HPM_P2
2022/07/02 00:05:01;;;;;;;0.00;0.00;;;;;;;;;;10558117;28;20060;-67
2022/07/02 00:10:04;;;;;;;0.00;0.00;;;;;;;;;;10572553;28;20212;-68
2022/07/02 00:15:09;;;;;;;0.00;0.00;;;;;;;;;;10571913;28;20074;-68
2022/07/02 00:20:12;;;;;;;0.00;0.00;;;;;;;;;;10558246;28;20067;-67
2022/07/02 00:25:14;;;;;;;0.00;0.00;;;;;;;;;;10558057;28;20048;-68
2022/07/02 00:30:18;;;;;;;0.00;0.00;;;;;;;;;;10558267;28;20056;-67
2022/07/02 00:35:20;;;;;;;0.00;0.00;;;;;;;;;;10572045;28;20205;-68
2022/07/02 00:40:24;;;;;;;0.00;0.00;;;;;;;;;;10557403;28;20054;-67
2022/07/02 00:45:28;;;;;;;0.00;0.00;;;;;;;;;;10571675;28;20063;-68
2022/07/02 00:50:30;;;;;;;0.00;0.00;;;;;;;;;;10577390;28;20052;-67
2022/07/02 00:55:33;;;;;;;0.00;0.00;;;;;;;;;;10579248;28;20043;-67
2022/07/02 01:00:36;;;;;;;0.00;0.00;;;;;;;;;;10565116;28;20075;-67
2022/07/02 01:05:39;;;;;;;0.08;0.08;;;;;;;;;;10524841;28;20074;-67
2022/07/02 01:10:44;;;;;;;0.00;0.00;;;;;;;;;;10576887;28;20047;-67
2022/07/02 01:15:48;;;;;;;0.00;0.00;;;;;;;;;;10578581;28;20051;-67
2022/07/02 01:20:50;;;;;;;0.00;0.00;;;;;;;;;;10578493;28;20040;-67
2022/07/02 01:25:54;;;;;;;0.00;0.00;;;;;;;;;;10564286;28;20052;-67
2022/07/02 01:30:56;;;;;;;0.10;0.10;;;;;;;;;;10577845;28;20040;-67
2022/07/02 01:35:59;;;;;;;0.00;0.00;;;;;;;;;;10578047;28;20052;-67
2022/07/02 01:46:19;;;;;;;0.00;0.00;;;;;;;;;;10555284;28;20064;-67
2022/07/02 01:51:21;;;;;;;0.10;0.10;;;;;;;;;;10563562;28;20067;-67
2022/07/02 01:56:24;;;;;;;0.00;0.00;;;;;;;;;;10563172;28;20048;-67
2022/07/02 02:01:27;;;;;;;0.00;0.00;;;;;;;;;;10572999;28;20082;-67
2022/07/02 02:06:29;;;;;;;0.00;0.00;;;;;;;;;;10565315;28;20210;-67
2022/07/02 02:11:33;;;;;;;0.00;0.00;;;;;;;;;;10562612;28;20056;-68
2022/07/02 02:16:35;;;;;;;0.10;0.10;;;;;;;;;;10576205;28;20055;-67
2022/07/02 02:21:37;;;;;;;0.00;0.00;;;;;;;;;;10544865;28;20049;-68
2022/07/02 02:26:41;;;;;;;0.10;0.10;;;;;;;;;;10568540;28;20070;-67
2022/07/02 02:31:43;;;;;;;0.10;0.10;;;;;;;;;;10561822;28;20051;-67
2022/07/02 02:36:45;;;;;;;0.00;0.00;;;;;;;;;;10561628;28;20048;-67
2022/07/02 02:41:49;;;;;;;0.10;0.10;;;;;;;;;;10575627;28;20052;-67
2022/07/02 02:46:51;;;;;;;;;;;;;;;;;;10559400;28;20063;-67
2022/07/02 02:51:53;;;;;;;0.10;0.10;;;;;;;;;;10574184;28;20118;-67
2022/07/02 02:56:57;;;;;;;0.00;0.00;;;;;;;;;;10574994;28;20047;-66
2022/07/02 03:01:59;;;;;;;0.10;0.10;;;;;;;;;;10568734;28;20047;-67
2022/07/02 03:07:01;;;;;;;0.10;0.10;;;;;;;;;;10559671;28;20078;-67
2022/07/02 03:12:06;;;;;;;0.10;0.10;;;;;;;;;;10573779;28;20048;-66
2022/07/02 03:17:08;;;;;;;0.10;0.10;;;;;;;;;;10573781;28;20043;-67
2022/07/02 03:22:10;;;;;;;0.10;0.10;;;;;;;;;;10558392;28;20048;-67
2022/07/02 03:27:13;;;;;;;0.10;0.10;;;;;;;;;;10551140;28;20239;-67
2022/07/02 03:32:16;;;;;;;0.10;0.10;;;;;;;;;;10535896;28;20044;-67
2022/07/02 03:37:18;;;;;;;0.00;0.00;;;;;;;;;;10553733;28;20623;-67
2022/07/02 03:42:21;;;;;;;0.10;0.10;;;;;;;;;;10571796;28;20239;-67
2022/07/02 03:47:24;;;;;;;;;;;;;;;;;;10558613;28;20323;-67
2022/07/02 03:52:26;;;;;;;0.10;0.10;;;;;;;;;;10571560;28;19923;-67
2022/07/02 03:57:29;;;;;;;0.10;0.10;;;;;;;;;;10572964;28;20040;-67
2022/07/02 04:02:32;;;;;;;0.10;0.10;;;;;;;;;;10563921;28;20234;-68
2022/07/02 04:07:35;;;;;;;0.10;0.10;;;;;;;;;;10572146;28;20040;-67
2022/07/02 04:12:38;;;;;;;0.10;0.10;;;;;;;;;;10558687;28;20477;-68
2022/07/02 04:17:40;;;;;;;0.10;0.10;;;;;;;;;;10558224;28;20056;-67
2022/07/02 04:22:42;;;;;;;0.10;0.10;;;;;;;;;;10558645;28;20032;-67
2022/07/02 04:27:46;;;;;;;0.00;0.00;;;;;;;;;;10566339;28;20047;-67
2022/07/02 04:32:48;;;;;;;0.00;0.00;;;;;;;;;;10580797;28;20044;-67
2022/07/02 04:37:50;;;;;;;0.10;0.10;;;;;;;;;;10565759;28;20066;-67
2022/07/02 04:42:54;;;;;;;0.00;0.00;;;;;;;;;;10566404;28;20159;-67
2022/07/02 04:47:56;;;;;;;0.00;0.00;;;;;;;;;;10565862;28;20357;-67
2022/07/02 04:52:59;;;;;;;0.00;0.00;;;;;;;;;;10559697;28;20052;-67
2022/07/02 04:58:02;;;;;;;0.00;0.00;;;;;;;;;;10579174;28;20036;-67
2022/07/02 05:03:05;;;;;;;0.00;0.00;;;;;;;;;;10563242;28;20056;-67
2022/07/02 05:08:07;;;;;;;0.00;0.00;;;;;;;;;;10580364;28;20048;-68
2022/07/02 05:13:10;;;;;;;0.00;0.00;;;;;;;;;;10557026;28;20055;-68
2022/07/02 05:18:13;;;;;;;0.00;0.00;;;;;;;;;;10575504;28;20063;-68
2022/07/02 05:23:15;;;;;;;0.00;0.00;;;;;;;;;;10576215;28;20040;-68
2022/07/02 05:30:44;;;;;;;0.00;0.00;;;;;;;;;;10650161;27;20640;-68
2022/07/02 05:35:46;;;;;;;;;;;;;;;;;;10638930;28;20048;-67
2022/07/02 05:40:48;;;;;;;0.00;0.00;;;;;;;;;;10637045;28;20222;-71
2022/07/02 05:45:51;;;;;;;0.00;0.00;;;;;;;;;;10645424;27;20043;-66
2022/07/02 05:50:53;;;;;;;0.00;0.00;;;;;;;;;;10647215;27;20043;-67
2022/07/02 05:55:55;;;;;;;0.30;0.30;;;;;;;;;;10651526;27;20047;-67
2022/07/02 06:00:59;;;;;;;0.38;0.38;;;;;;;;;;10621719;28;20345;-66
2022/07/02 06:11:21;;;;;;;1.15;1.15;;;;;;;;;;10606904;28;20040;-67
2022/07/02 06:16:27;;;;;;;0.90;0.90;;;;;;;;;;10607609;28;20051;-67
2022/07/02 06:21:30;;;;;;;1.60;1.60;;;;;;;;;;10607836;28;20040;-68
2022/07/02 06:26:33;;;;;;;1.90;1.90;;;;;;;;;;10594883;28;20045;-67
2022/07/02 06:31:37;;;;;;;1.60;1.60;;;;;;;;;;10607278;28;20036;-67
2022/07/02 06:36:39;;;;;;;2.05;2.05;;;;;;;;;;10607414;28;20051;-68
2022/07/02 06:47:02;;;;;;;2.03;2.03;;;;;;;;;;10564235;28;20342;-67
2022/07/02 06:52:05;;;;;;;2.40;2.40;;;;;;;;;;10558483;28;20227;-68
2022/07/02 06:57:08;;;;;;;2.40;2.40;;;;;;;;;;10577004;28;20044;-68
2022/07/02 07:02:12;;;;;;;2.38;2.38;;;;;;;;;;10564798;28;20338;-69
2022/07/02 07:07:14;;;;;;;2.60;2.60;;;;;;;;;;10558844;28;20062;-67
2022/07/02 07:12:16;;;;;;;8.07;7.78;;;;;;;;;;10577542;28;20048;-67
2022/07/02 07:17:19;;;;;;;4.50;4.40;;;;;;;;;;10561510;28;20056;-68
2022/07/02 07:22:22;;;;;;;5.93;5.72;;;;;;;;;;10574311;28;20071;-68
2022/07/02 07:27:26;;;;;;;3.07;2.97;;;;;;;;;;10570121;28;20060;-68
2022/07/02 07:32:30;;;;;;;3.95;3.85;;;;;;;;;;10572264;28;20046;-68
2022/07/02 07:37:32;;;;;;;1.55;1.55;;;;;;;;;;10576386;28;20044;-68
2022/07/02 07:42:35;;;;;;;0.40;0.40;;;;;;;;;;10558879;28;20052;-68
2022/07/02 07:47:38;;;;;;;1.70;1.70;;;;;;;;;;10575811;28;20048;-68
2022/07/02 07:52:40;;;;;;;1.05;1.05;;;;;;;;;;10560737;28;20063;-68
2022/07/02 07:57:42;;;;;;;5.60;5.40;;;;;;;;;;10574348;28;20052;-68
2022/07/02 08:02:46;;;;;;;0.00;0.00;;;;;;;;;;10561078;28;20124;-68
2022/07/02 08:07:48;;;;;;;0.00;0.00;;;;;;;;;;10574819;28;20078;-68
2022/07/02 08:12:50;;;;;;;2.10;2.10;;;;;;;;;;10574215;28;20040;-67
2022/07/02 08:17:54;;;;;;;0.00;0.00;;;;;;;;;;10560307;28;20056;-69
2022/07/02 08:22:56;;;;;;;0.00;0.00;;;;;;;;;;10574727;28;20059;-69
2022/07/02 08:28:00;;;;;;;0.00;0.00;;;;;;;;;;10565806;28;20052;-68
2022/07/02 08:33:04;;;;;;;;;;;;;;;;;;10573663;28;20055;-68
2022/07/02 08:38:06;;;;;;;1.88;1.88;;;;;;;;;;10573970;28;19916;-68
2022/07/02 08:43:08;;;;;;;2.63;2.60;;;;;;;;;;10558492;28;20374;-68
2022/07/02 08:48:13;;;;;;;7.53;7.23;;;;;;;;;;10573560;28;20242;-68
2022/07/02 08:53:17;;;;;;;3.63;3.53;;;;;;;;;;10573202;28;20047;-67
2022/07/02 08:58:20;;;;;;;0.00;0.00;;;;;;;;;;10572571;28;20043;-68
2022/07/02 09:03:24;;;;;;;0.00;0.00;;;;;;;;;;10570143;28;20047;-68
2022/07/02 09:08:27;;;;;;;0.00;0.00;;;;;;;;;;10573006;28;20044;-69
2022/07/02 09:13:31;;;;;;;0.00;0.00;;;;;;;;;;10571744;28;20328;-67
2022/07/02 09:18:34;;;;;;;0.00;0.00;;;;;;;;;;10572458;28;20084;-68
2022/07/02 09:23:46;;;;;;;0.00;0.00;;;;;;;;;;10572564;28;20085;-68
2022/07/02 09:28:55;;;;;;;0.00;0.00;;;;;;;;;;10562211;28;20068;-68
2022/07/02 09:33:59;;;;;;;0.00;0.00;;;;;;;;;;10558874;28;20040;-67
2022/07/02 09:39:01;;;;;;;0.00;0.00;;;;;;;;;;10571996;28;20235;-68
2022/07/02 09:44:06;;;;;;;0.00;0.00;;;;;;;;;;10557416;28;20234;-68
2022/07/02 09:49:11;;;;;;;0.00;0.00;;;;;;;;;;10571887;28;20319;-68
2022/07/02 09:54:18;;;;;;;2.47;2.38;;;;;;;;;;10571690;28;20062;-69
2022/07/02 09:59:20;;;;;;;1.63;1.63;;;;;;;;;;10569128;28;20043;-67
2022/07/02 10:04:31;;;;;;;2.58;2.55;;;;;;;;;;10563772;28;20043;-66
2022/07/02 10:09:34;;;;;;;3.83;3.72;;;;;;;;;;10570515;28;20040;-66
2022/07/02 10:14:38;;;;;;;0.00;0.00;;;;;;;;;;10574107;28;20040;-70
2022/07/02 10:19:42;;;;;;;0.20;0.20;;;;;;;;;;10565917;28;20048;-67
2022/07/02 10:24:46;;;;;;;0.00;0.00;;;;;;;;;;10578457;28;20119;-67
2022/07/02 10:29:49;;;;;;;0.00;0.00;;;;;;;;;;10566507;28;20068;-66
2022/07/02 10:35:03;;;;;;;0.30;0.30;;;;;;;;;;10575316;28;20315;-66
2022/07/02 10:40:07;;;;;;;0.30;0.30;;;;;;;;;;10579000;28;20052;-68
2022/07/02 10:45:12;;;;;;;3.97;3.88;;;;;;;;;;10561886;28;20060;-67
2022/07/02 10:50:16;;;;;;;8.32;8.00;;;;;;;;;;10577902;28;20040;-69
2022/07/02 10:55:28;;;;;;;6.30;6.10;;;;;;;;;;10576849;28;20062;-68
2022/07/02 11:00:32;;;;;;;6.72;6.53;;;;;;;;;;10377511;28;20061;-66
2022/07/02 11:05:35;;;;;;;5.05;4.93;;;;;;;;;;10439241;28;20056;-67
2022/07/02 11:10:49;;;;;;;3.75;3.65;;;;;;;;;;10493280;28;20056;-67
2022/07/02 11:15:51;;;;;;;2.28;2.28;;;;;;;;;;10492694;28;20037;-65
2022/07/02 11:20:55;;;;;;;2.55;2.55;;;;;;;;;;10494077;28;20047;-66
2022/07/02 11:25:58;;;;;;;0.00;0.00;;;;;;;;;;10489013;28;20240;-66
2022/07/02 11:31:02;;;;;;;8.40;8.10;;;;;;;;;;10479460;28;20061;-66
2022/07/02 11:36:08;;;;;;;0.00;0.00;;;;;;;;;;10480304;28;20056;-66
2022/07/02 11:41:19;;;;;;;0.00;0.00;;;;;;;;;;10474377;28;20065;-67
2022/07/02 11:46:23;;;;;;;0.00;0.00;;;;;;;;;;10462988;28;20056;-65
2022/07/02 11:51:27;;;;;;;0.00;0.00;;;;;;;;;;10491548;28;20132;-67
2022/07/02 11:56:31;;;;;;;0.00;0.00;;;;;;;;;;10490764;28;20040;-66
2022/07/02 12:01:34;;;;;;;0.20;0.20;;;;;;;;;;10492130;28;20041;-67
2022/07/02 12:06:39;;;;;;;4.38;4.28;;;;;;;;;;10476832;28;20049;-67
2022/07/02 12:11:44;;;;;;;2.22;2.22;;;;;;;;;;10474602;28;20083;-70
2022/07/02 12:16:47;;;;;;;3.95;3.75;;;;;;;;;;10479028;28;20345;-65
2022/07/02 12:21:50;;;;;;;6.35;6.15;;;;;;;;;;10488591;28;20044;-67
2022/07/02 12:26:54;;;;;;;0.00;0.00;;;;;;;;;;10484710;28;20049;-66
2022/07/02 12:32:05;;;;;;;0.00;0.00;;;;;;;;;;10477102;28;20328;-65
2022/07/02 12:37:11;;;;;;;0.00;0.00;;;;;;;;;;10488454;28;20041;-72
2022/07/02 12:42:18;;;;;;;0.00;0.00;;;;;;;;;;10488694;28;20041;-66
2022/07/02 12:47:28;;;;;;;1.45;1.45;;;;;;;;;;10490388;28;20045;-67
2022/07/02 12:52:43;;;;;;;0.85;0.85;;;;;;;;;;10474198;28;20045;-68
2022/07/02 12:57:45;;;;;;;7.50;7.20;;;;;;;;;;10473789;28;20048;-68
2022/07/02 13:02:57;;;;;;;5.82;5.63;;;;;;;;;;10488809;28;20048;-68
2022/07/02 13:08:00;;;;;;;;;;;;;;;;;;10488163;28;20051;-67
2022/07/02 13:13:03;;;;;;;0.00;0.00;;;;;;;;;;10467910;28;19920;-67
2022/07/02 13:18:06;;;;;;;0.00;0.00;;;;;;;;;;10487015;28;20090;-64
2022/07/02 13:23:09;;;;;;;0.00;0.00;;;;;;;;;;10475172;28;20049;-66
2022/07/02 13:28:12;;;;;;;0.00;0.00;;;;;;;;;;10481661;28;20060;-66
2022/07/02 13:33:14;;;;;;;0.00;0.00;;;;;;;;;;10487312;28;20045;-66
2022/07/02 13:38:17;;;;;;;7.50;7.20;;;;;;;;;;10475325;28;20239;-68
2022/07/02 13:43:20;;;;;;;0.00;0.00;;;;;;;;;;10474740;28;20045;-67
2022/07/02 13:48:22;;;;;;;0.00;0.00;;;;;;;;;;10486296;28;20247;-67
2022/07/02 13:53:26;;;;;;;0.13;0.13;;;;;;;;;;10483505;28;20351;-66
2022/07/02 13:58:28;;;;;;;3.05;2.95;;;;;;;;;;10481820;28;20332;-66
2022/07/02 14:03:30;;;;;;;0.00;0.00;;;;;;;;;;10491137;28;20045;-66
2022/07/02 14:08:33;;;;;;;0.00;0.00;;;;;;;;;;10495600;28;20045;-66
2022/07/02 14:13:35;;;;;;;0.00;0.00;;;;;;;;;;10493543;28;20044;-68
2022/07/02 14:18:38;;;;;;;0.00;0.00;;;;;;;;;;10480963;28;20053;-67
2022/07/02 14:23:42;;;;;;;0.00;0.00;;;;;;;;;;10496340;28;20040;-67
2022/07/02 14:28:44;;;;;;;7.57;7.28;;;;;;;;;;10485917;28;20053;-67
2022/07/02 14:33:47;;;;;;;5.30;5.10;;;;;;;;;;10494584;28;20129;-67
2022/07/02 14:38:50;;;;;;;6.18;5.97;;;;;;;;;;10493734;28;20087;-67
2022/07/02 14:43:52;;;;;;;7.50;7.20;;;;;;;;;;10481639;28;20325;-66
2022/07/02 14:48:54;;;;;;;;;;;;;;;;;;10495311;28;20041;-67
2022/07/02 14:53:59;;;;;;;8.20;7.90;;;;;;;;;;10479078;28;19925;-66
2022/07/02 14:59:02;;;;;;;9.00;8.60;;;;;;;;;;10493806;28;20041;-66
2022/07/02 15:04:04;;;;;;;7.85;7.55;;;;;;;;;;10479431;28;20075;-68
2022/07/02 15:09:10;;;;;;;8.32;8.02;;;;;;;;;;10478604;28;20049;-68
2022/07/02 15:19:33;;;;;;;6.00;5.80;;;;;;;;;;10478515;28;20040;-67
2022/07/02 15:24:42;;;;;;;12.00;11.40;;;;;;;;;;10478711;28;20051;-67
2022/07/02 15:29:44;;;;;;;0.00;0.00;;;;;;;;;;10481811;28;20052;-67
2022/07/02 15:34:48;;;;;;;0.00;0.00;;;;;;;;;;10489863;28;20033;-65
2022/07/02 15:39:52;;;;;;;0.00;0.00;;;;;;;;;;10492090;28;20045;-67
2022/07/02 15:44:55;;;;;;;0.00;0.00;;;;;;;;;;10492832;28;20075;-65
2022/07/02 15:49:59;;;;;;;5.70;5.50;;;;;;;;;;10490015;28;20603;-66
2022/07/02 15:55:08;;;;;;;5.82;5.63;;;;;;;;;;10476542;28;20049;-65
2022/07/02 16:00:12;;;;;;;6.80;6.60;;;;;;;;;;10477929;28;20053;-65
2022/07/02 16:05:15;;;;;;;4.03;3.92;;;;;;;;;;10482439;28;20049;-67
2022/07/02 16:10:20;;;;;;;6.40;6.20;;;;;;;;;;10491489;28;20053;-66
2022/07/02 16:15:23;;;;;;;6.90;6.70;;;;;;;;;;10489764;28;21087;-67
2022/07/02 16:20:28;;;;;;;5.65;5.45;;;;;;;;;;10489499;28;20044;-66
2022/07/02 16:25:32;;;;;;;6.10;5.90;;;;;;;;;;10489863;28;20376;-67
2022/07/02 16:30:37;;;;;;;5.40;5.20;;;;;;;;;;10476911;28;20060;-66
2022/07/02 16:35:43;;;;;;;5.30;5.10;;;;;;;;;;10488850;28;20049;-66
2022/07/02 16:40:47;;;;;;;6.25;6.05;;;;;;;;;;10487963;28;20244;-67
2022/07/02 16:45:52;;;;;;;0.00;0.00;;;;;;;;;;10489857;28;20041;-66
2022/07/02 16:51:02;;;;;;;0.00;0.00;;;;;;;;;;10490226;28;20075;-66
2022/07/02 16:56:06;;;;;;;4.45;4.35;;;;;;;;;;10487867;28;20041;-67
2022/07/02 17:01:09;;;;;;;1.65;1.65;;;;;;;;;;10489797;28;20040;-67
2022/07/02 17:06:13;;;;;;;4.35;4.25;;;;;;;;;;10478260;28;20047;-68
2022/07/02 17:11:30;;;;;;;0.00;0.00;;;;;;;;;;10474409;28;20244;-67
2022/07/02 17:16:32;;;;;;;0.00;0.00;;;;;;;;;;10487831;28;20037;-68
2022/07/02 17:21:34;;;;;;;0.00;0.00;;;;;;;;;;10474667;28;20331;-67
2022/07/02 17:26:39;;;;;;;0.00;0.00;;;;;;;;;;10483671;28;20052;-67
2022/07/02 17:31:41;;;;;;;0.00;0.00;;;;;;;;;;10487358;28;20041;-68
2022/07/02 17:36:43;;;;;;;0.00;0.00;;;;;;;;;;10474391;28;20060;-68
2022/07/02 17:41:47;;;;;;;0.00;0.00;;;;;;;;;;10469429;28;20217;-67
2022/07/02 17:46:49;;;;;;;0.00;0.00;;;;;;;;;;10474722;28;20232;-66
2022/07/02 17:51:51;;;;;;;0.00;0.00;;;;;;;;;;10487026;28;20251;-68
2022/07/02 17:56:55;;;;;;;0.00;0.00;;;;;;;;;;10487332;28;20037;-67
2022/07/02 18:01:57;;;;;;;;;;;;;;;;;;10485608;28;20053;-66
2022/07/02 18:06:59;;;;;;;0.00;0.00;;;;;;;;;;10474140;28;19924;-67
2022/07/02 18:12:04;;;;;;;0.00;0.00;;;;;;;;;;10487552;28;20053;-68
2022/07/02 18:17:07;;;;;;;0.00;0.00;;;;;;;;;;10471240;28;20052;-67
2022/07/02 18:22:10;;;;;;;0.00;0.00;;;;;;;;;;10474338;28;20045;-69
2022/07/02 18:27:14;;;;;;;0.00;0.00;;;;;;;;;;10487084;28;20072;-68
2022/07/02 18:32:16;;;;;;;0.00;0.00;;;;;;;;;;10487534;28;20053;-69
2022/07/02 18:37:19;;;;;;;0.00;0.00;;;;;;;;;;10500073;28;20041;-69
2022/07/02 18:42:23;;;;;;;0.00;0.00;;;;;;;;;;10508222;28;20240;-69
2022/07/02 18:47:25;;;;;;;0.00;0.00;;;;;;;;;;10489510;28;20059;-68
2022/07/02 18:52:27;;;;;;;0.00;0.00;;;;;;;;;;10484507;28;20036;-68
2022/07/02 18:57:31;;;;;;;0.00;0.00;;;;;;;;;;10493909;28;20116;-67
2022/07/02 19:02:33;;;;;;;0.00;0.00;;;;;;;;;;10493141;28;20060;-68
2022/07/02 19:07:36;;;;;;;0.10;0.10;;;;;;;;;;10493916;28;20041;-69
2022/07/02 19:12:39;;;;;;;0.00;0.00;;;;;;;;;;10493352;28;20048;-67
2022/07/02 19:17:42;;;;;;;;;;;;;;;;;;10478979;28;20370;-67
2022/07/02 19:22:44;;;;;;;0.00;0.00;;;;;;;;;;10493641;28;19924;-67
2022/07/02 19:33:10;;;;;;;0.10;0.10;;;;;;;;;;10500406;28;20060;-69
2022/07/02 19:38:12;;;;;;;0.10;0.10;;;;;;;;;;10493641;28;20041;-68
2022/07/02 19:43:16;;;;;;;0.45;0.45;;;;;;;;;;10492049;28;20041;-68
2022/07/02 19:48:19;;;;;;;0.00;0.00;;;;;;;;;;10492418;28;20339;-68
2022/07/02 19:53:21;;;;;;;0.10;0.10;;;;;;;;;;10492751;28;20095;-70
2022/07/02 19:58:24;;;;;;;0.00;0.00;;;;;;;;;;10491885;28;20037;-67
2022/07/02 20:03:26;;;;;;;0.10;0.10;;;;;;;;;;10488237;28;20040;-67
2022/07/02 20:08:29;;;;;;;1.40;1.40;;;;;;;;;;10519102;28;20079;-68
2022/07/02 20:13:33;;;;;;;0.10;0.10;;;;;;;;;;10506857;28;20045;-67
2022/07/02 20:18:35;;;;;;;0.10;0.10;;;;;;;;;;10489174;28;20072;-68
2022/07/02 20:23:37;;;;;;;0.10;0.10;;;;;;;;;;10491479;28;20040;-69
2022/07/02 20:28:42;;;;;;;0.10;0.10;;;;;;;;;;10417335;28;20056;-68
2022/07/02 20:33:45;;;;;;;0.93;0.93;;;;;;;;;;10515229;28;20052;-68
2022/07/02 20:38:47;;;;;;;2.30;2.30;;;;;;;;;;10522276;28;20047;-66
2022/07/02 20:43:51;;;;;;;0.10;0.10;;;;;;;;;;10527538;28;20044;-67
2022/07/02 20:48:53;;;;;;;0.10;0.10;;;;;;;;;;10490140;28;20040;-70
2022/07/02 20:53:55;;;;;;;0.25;0.25;;;;;;;;;;10509511;28;20216;-69
2022/07/02 20:58:59;;;;;;;0.22;0.22;;;;;;;;;;10499111;28;20209;-69
2022/07/02 21:04:01;;;;;;;3.23;3.13;;;;;;;;;;10479844;28;20357;-70
2022/07/02 21:09:05;;;;;;;2.17;2.17;;;;;;;;;;10482198;28;20304;-68
2022/07/02 21:14:09;;;;;;;0.10;0.10;;;;;;;;;;10515189;28;20047;-68
2022/07/02 21:19:12;;;;;;;0.10;0.10;;;;;;;;;;10521039;28;20045;-67
2022/07/02 21:24:14;;;;;;;2.17;2.17;;;;;;;;;;10530660;28;20041;-67
2022/07/02 21:29:18;;;;;;;0.10;0.10;;;;;;;;;;10491341;28;20072;-68
2022/07/02 21:34:20;;;;;;;;;;;;;;;;;;10477836;28;20091;-69
2022/07/02 21:39:22;;;;;;;3.40;3.30;;;;;;;;;;10512548;28;19923;-68
2022/07/02 21:44:26;;;;;;;2.80;2.70;;;;;;;;;;10504580;28;20049;-68
2022/07/02 21:49:28;;;;;;;2.28;2.28;;;;;;;;;;10530311;28;20051;-67
2022/07/02 21:54:31;;;;;;;3.30;3.20;;;;;;;;;;10506995;28;20247;-68
2022/07/02 21:59:34;;;;;;;2.60;2.60;;;;;;;;;;10510955;28;20047;-68
2022/07/02 22:04:39;;;;;;;2.90;2.80;;;;;;;;;;10499543;28;20053;-67
2022/07/02 22:09:41;;;;;;;2.20;2.20;;;;;;;;;;10497758;28;20048;-68
2022/07/02 22:14:45;;;;;;;1.60;1.60;;;;;;;;;;10496477;28;20041;-67
2022/07/02 22:19:47;;;;;;;0.70;0.70;;;;;;;;;;10495980;28;20040;-66
2022/07/02 22:24:49;;;;;;;0.50;0.50;;;;;;;;;;10496263;28;20351;-72
2022/07/02 22:29:54;;;;;;;0.40;0.40;;;;;;;;;;10490517;28;20075;-67
2022/07/02 22:34:56;;;;;;;0.40;0.40;;;;;;;;;;10537264;28;20059;-66
2022/07/02 22:39:58;;;;;;;0.40;0.40;;;;;;;;;;10528222;28;20045;-68
2022/07/02 22:45:01;;;;;;;0.40;0.40;;;;;;;;;;10482179;28;20209;-67
2022/07/02 22:50:04;;;;;;;0.20;0.20;;;;;;;;;;10488904;28;20059;-67
2022/07/02 22:55:08;;;;;;;0.20;0.20;;;;;;;;;;10514920;28;20061;-68
2022/07/02 23:00:13;;;;;;;0.20;0.20;;;;;;;;;;10494702;28;20040;-66
2022/07/02 23:05:16;;;;;;;0.20;0.20;;;;;;;;;;10493279;28;20040;-68
2022/07/02 23:10:18;;;;;;;0.20;0.20;;;;;;;;;;10514948;28;20060;-68
2022/07/02 23:15:22;;;;;;;0.20;0.20;;;;;;;;;;10487722;28;20355;-68
2022/07/02 23:20:24;;;;;;;0.10;0.10;;;;;;;;;;10464526;28;20052;-68
2022/07/02 23:25:26;;;;;;;0.20;0.20;;;;;;;;;;10516034;28;20336;-68
2022/07/02 23:30:31;;;;;;;0.10;0.10;;;;;;;;;;10502359;28;20057;-67
2022/07/02 23:35:33;;;;;;;0.10;0.10;;;;;;;;;;10502024;28;20049;-68
2022/07/02 23:40:35;;;;;;;0.10;0.10;;;;;;;;;;10491981;28;20053;-67
2022/07/02 23:45:39;;;;;;;0.10;0.10;;;;;;;;;;10507429;28;20057;-68
2022/07/02 23:50:41;;;;;;;0.10;0.10;;;;;;;;;;10505399;28;20053;-68
2022/07/02 23:55:44;;;;;;;0.10;0.10;;;;;;;;;;10533599;28;20047;-67
